Time;durP1;ratioP1;P1;durP2;ratioP2;P2;SDS_P1;SDS_P2;PMS_P1;PMS_P2;Temp;Humidity;BMP_temperature;BMP_pressure;BME280_temperature;BME280_humidity;BME280_pressure;Samples;Min_cycle;Max_cycle;Signal;HPM_P1;HPM_P2
2021/04/03 00:00:43;;;;;;;7.82;5.43;;;;;;;13.00;62.68;99601.63;5066734;28;20075;-21
2021/04/03 00:03:10;;;;;;;9.98;5.88;;;;;;;13.08;62.91;99619.97;5066850;28;20029;-21
2021/04/03 00:05:36;;;;;;;8.73;5.75;;;;;;;13.14;62.54;99616.28;5066757;28;20721;-21
2021/04/03 00:08:02;;;;;;;8.23;6.10;;;;;;;13.34;62.26;99623.00;5032636;28;20021;-22
2021/04/03 00:10:33;;;;;;;9.27;6.50;;;;;;;13.35;62.39;99604.00;5066935;28;20144;-23
2021/04/03 00:12:59;;;;;;;10.00;5.93;;;;;;;13.50;62.16;99616.78;5048828;28;20035;-22
2021/04/03 00:15:25;;;;;;;8.93;5.63;;;;;;;13.74;60.59;99601.25;5066706;28;20114;-23
2021/04/03 00:17:50;;;;;;;8.93;5.82;;;;;;;13.79;61.43;99609.38;5066930;28;20518;-21
2021/04/03 00:20:17;;;;;;;8.88;5.28;;;;;;;13.36;62.18;99596.78;5066632;28;20040;-22
2021/04/03 00:22:43;;;;;;;11.60;6.22;;;;;;;13.67;61.25;99589.94;5066832;28;20036;-22
2021/04/03 00:25:09;;;;;;;8.85;6.20;;;;;;;13.68;61.36;99606.81;5066785;28;20467;-22
2021/04/03 00:27:35;;;;;;;10.23;7.22;;;;;;;13.34;62.69;99602.41;5066468;28;20059;-23
2021/04/03 00:30:14;;;;;;;10.85;6.38;;;;;;;13.17;63.26;99594.38;5048755;28;20559;-23
2021/04/03 00:32:56;;;;;;;9.00;6.93;;;;;;;13.03;63.81;99601.94;5066389;28;20028;-23
2021/04/03 00:35:28;;;;;;;11.35;7.38;;;;;;;13.20;63.28;99601.91;5066919;28;20052;-22
2021/04/03 00:37:56;;;;;;;10.45;7.57;;;;;;;13.09;63.47;99594.00;5032808;28;20500;-23
2021/04/03 00:40:33;;;;;;;10.82;7.35;;;;;;;13.27;63.35;99602.53;5066126;28;20074;-22
2021/04/03 00:42:59;;;;;;;13.05;8.25;;;;;;;13.22;63.54;99590.97;5048688;28;20021;-22
2021/04/03 00:45:25;;;;;;;13.48;7.78;;;;;;;13.02;64.91;99594.19;5048359;28;20037;-24
2021/04/03 00:47:51;;;;;;;12.93;8.40;;;;;;;13.15;64.60;99585.78;5048437;28;20039;-22
2021/04/03 00:50:36;;;;;;;11.82;8.00;;;;;;;13.20;64.35;99585.06;5051010;28;20052;-22
2021/04/03 00:53:05;;;;;;;12.35;8.40;;;;;;;13.44;63.20;99581.09;5037387;28;20107;-21
2021/04/03 00:55:31;;;;;;;13.48;8.35;;;;;;;13.66;63.31;99599.81;5069886;28;20025;-22
2021/04/03 00:57:57;;;;;;;12.02;9.25;;;;;;;13.46;63.71;99596.91;5069845;28;20034;-23
2021/04/03 01:00:22;;;;;;;16.63;9.50;;;;;;;13.57;63.51;99606.69;5069714;28;20455;-21
2021/04/03 01:02:48;;;;;;;14.95;9.35;;;;;;;13.23;64.43;99576.50;5070150;28;20036;-22
2021/04/03 01:05:18;;;;;;;13.50;9.35;;;;;;;13.48;64.02;99586.75;5069656;28;20108;-22
2021/04/03 01:07:44;;;;;;;12.75;8.95;;;;;;;13.60;63.67;99590.09;5069801;28;20032;-22
2021/04/03 01:10:13;;;;;;;15.35;8.98;;;;;;;13.48;64.29;99575.22;5069665;28;20385;-21
2021/04/03 01:13:06;;;;;;;12.52;8.93;;;;;;;13.57;63.01;99558.47;5035222;28;20021;-22
2021/04/03 01:16:10;;;;;;;12.00;8.57;;;;;;;13.00;65.03;99580.22;5053303;28;20054;-22
2021/04/03 01:18:38;;;;;;;13.30;9.02;;;;;;;13.44;64.21;99575.75;4987835;28;20457;-22
2021/04/03 01:21:22;;;;;;;12.55;9.40;;;;;;;13.71;63.14;99571.47;4987727;28;20034;-22
2021/04/03 01:24:29;;;;;;;13.23;8.95;;;;;;;13.66;63.48;99583.75;5037281;28;20741;-22
2021/04/03 01:27:14;;;;;;;12.82;8.50;;;;;;;13.66;63.35;99589.09;5024559;28;20505;-22
2021/04/03 01:29:50;;;;;;;14.63;9.48;;;;;;;13.80;62.76;99588.72;5051316;28;20025;-22
2021/04/03 01:32:18;;;;;;;14.07;9.20;;;;;;;13.74;62.45;99562.94;5051061;28;20032;-22
2021/04/03 01:34:44;;;;;;;11.88;8.25;;;;;;;13.83;62.81;99572.97;5034899;28;20032;-23
2021/04/03 01:37:12;;;;;;;13.55;8.85;;;;;;;13.73;62.99;99596.13;5034779;28;20103;-23
2021/04/03 01:39:37;;;;;;;12.27;8.27;;;;;;;13.32;64.15;99566.19;5034876;28;20025;-23
2021/04/03 01:42:07;;;;;;;13.27;8.88;;;;;;;13.03;65.67;99580.53;5051115;28;20041;-22
2021/04/03 01:44:36;;;;;;;12.15;8.63;;;;;;;12.79;66.07;99563.03;5051206;28;20104;-22
2021/04/03 01:47:01;;;;;;;12.25;8.63;;;;;;;13.36;64.76;99578.03;5050995;28;20043;-23
2021/04/03 01:49:27;;;;;;;16.58;9.98;;;;;;;13.54;64.29;99575.03;5050955;28;20135;-23
2021/04/03 01:51:53;;;;;;;13.65;9.25;;;;;;;13.24;64.59;99549.50;5051091;28;20068;-22
2021/04/03 01:54:20;;;;;;;13.43;9.80;;;;;;;13.28;65.13;99576.59;5050677;28;20043;-22
2021/04/03 01:56:47;;;;;;;12.40;8.95;;;;;;;13.25;64.72;99567.16;5051373;28;20507;-22
2021/04/03 01:59:13;;;;;;;11.85;8.75;;;;;;;13.34;64.22;99566.75;5068627;28;20060;-23
2021/04/03 02:01:40;;;;;;;12.55;8.93;;;;;;;13.28;64.63;99568.56;5049604;28;20118;-22
2021/04/03 02:04:06;;;;;;;13.48;8.25;;;;;;;13.12;64.74;99556.00;5068695;28;20489;-22
2021/04/03 02:06:33;;;;;;;13.25;9.38;;;;;;;13.10;65.17;99575.00;5034213;28;20564;-21
2021/04/03 02:08:59;;;;;;;13.90;8.82;;;;;;;13.31;64.22;99580.66;5034384;28;20170;-21
2021/04/03 02:11:24;;;;;;;13.93;9.40;;;;;;;13.40;64.17;99584.50;5050911;28;20032;-22
2021/04/03 02:13:50;;;;;;;13.10;9.52;;;;;;;13.52;63.96;99581.72;5050481;28;20031;-22
2021/04/03 02:16:15;;;;;;;15.52;9.15;;;;;;;13.62;63.32;99560.41;5050245;28;20044;-22
2021/04/03 02:18:41;;;;;;;14.07;9.50;;;;;;;13.69;63.13;99565.56;5050413;28;20070;-22
2021/04/03 02:21:07;;;;;;;13.80;9.73;;;;;;;13.57;63.52;99568.41;5033850;28;20075;-22
2021/04/03 02:23:34;;;;;;;12.93;9.52;;;;;;;13.27;64.22;99556.22;5068041;28;20485;-23
2021/04/03 02:26:00;;;;;;;14.43;9.65;;;;;;;13.57;63.52;99579.91;5050328;28;20043;-22
2021/04/03 02:28:25;;;;;;;14.60;10.23;;;;;;;13.48;63.35;99564.53;5033508;28;20703;-22
2021/04/03 02:30:52;;;;;;;13.82;9.68;;;;;;;12.77;65.59;99555.28;5050187;28;20055;-22
2021/04/03 02:33:17;;;;;;;13.95;10.45;;;;;;;12.68;66.16;99567.44;5068025;28;20137;-22
2021/04/03 02:35:43;;;;;;;13.82;9.77;;;;;;;12.72;66.25;99565.91;5068325;28;20036;-23
2021/04/03 02:38:09;;;;;;;13.73;10.63;;;;;;;13.15;65.04;99555.53;5067686;28;20036;-22
2021/04/03 02:40:34;;;;;;;18.95;13.20;;;;;;;13.01;65.34;99573.81;5050102;28;20031;-23
2021/04/03 02:43:24;;;;;;;15.07;10.75;;;;;;;13.50;63.52;99576.59;5033578;28;20037;-23
2021/04/03 02:46:03;;;;;;;14.75;10.85;;;;;;;13.56;62.83;99567.56;5067910;28;20031;-23
2021/04/03 02:48:33;;;;;;;14.43;9.90;;;;;;;13.56;62.86;99556.03;5033039;28;20496;-22
2021/04/03 02:50:59;;;;;;;13.65;10.05;;;;;;;12.83;64.63;99570.38;5050302;28;20036;-21
2021/04/03 02:53:30;;;;;;;15.65;10.43;;;;;;;13.19;63.88;99568.16;5033324;28;20024;-22
2021/04/03 02:55:56;;;;;;;15.07;11.13;;;;;;;13.07;64.88;99570.13;5050558;28;20023;-23
2021/04/03 02:58:23;;;;;;;14.40;10.32;;;;;;;12.97;64.33;99564.66;5049635;28;20040;-22
2021/04/03 03:00:51;;;;;;;15.25;10.73;;;;;;;13.16;63.73;99549.94;5067571;28;20045;-22
2021/04/03 03:03:17;;;;;;;13.68;9.63;;;;;;;13.51;63.18;99564.84;5067562;28;20036;-22
2021/04/03 03:05:42;;;;;;;14.18;10.10;;;;;;;13.61;62.66;99559.59;5049468;28;20032;-22
2021/04/03 03:08:08;;;;;;;15.43;10.70;;;;;;;13.89;62.04;99570.31;5049376;28;20036;-22
2021/04/03 03:10:33;;;;;;;15.73;10.88;;;;;;;13.55;63.10;99562.47;5049836;28;20029;-22
2021/04/03 03:12:59;;;;;;;14.98;10.63;;;;;;;13.88;61.62;99564.16;5049365;28;20126;-23
2021/04/03 03:15:31;;;;;;;14.95;10.88;;;;;;;14.04;61.21;99560.56;5049190;28;20115;-22
2021/04/03 03:17:56;;;;;;;14.48;10.57;;;;;;;14.00;61.01;99559.44;5033451;28;20043;-22
2021/04/03 03:20:22;;;;;;;16.27;11.20;;;;;;;13.90;60.87;99558.56;5032718;28;20028;-21
2021/04/03 03:22:47;;;;;;;16.10;11.70;;;;;;;13.44;62.99;99564.19;5067369;28;20029;-22
2021/04/03 03:25:13;;;;;;;16.90;11.50;;;;;;;13.28;63.00;99560.53;5032710;28;20029;-22
2021/04/03 03:27:44;;;;;;;16.42;12.15;;;;;;;13.41;62.95;99565.53;5067373;28;20056;-23
2021/04/03 03:30:10;;;;;;;19.98;14.10;;;;;;;13.09;63.92;99546.59;5049132;28;20121;-22
2021/04/03 03:32:36;;;;;;;16.55;12.77;;;;;;;13.53;61.71;99552.00;5032786;28;20151;-23
2021/04/03 03:35:02;;;;;;;17.45;12.45;;;;;;;13.42;62.73;99544.91;5032595;28;20025;-23
2021/04/03 03:37:28;;;;;;;18.35;13.23;;;;;;;13.28;63.28;99557.84;5066999;28;20032;-22
2021/04/03 03:39:53;;;;;;;17.60;12.63;;;;;;;13.08;63.80;99561.06;5032839;28;20032;-22
2021/04/03 03:42:19;;;;;;;16.48;12.43;;;;;;;13.29;62.48;99539.91;5032276;28;20024;-23
2021/04/03 03:44:45;;;;;;;19.95;13.35;;;;;;;12.95;64.49;99564.09;5049075;28;20381;-22
2021/04/03 03:47:10;;;;;;;17.10;13.60;;;;;;;13.06;63.56;99555.94;5066959;28;20032;-22
2021/04/03 03:49:36;;;;;;;19.20;14.23;;;;;;;13.11;63.67;99560.56;5048905;28;20115;-21
2021/04/03 03:52:02;;;;;;;22.63;13.65;;;;;;;13.19;63.16;99549.41;5066904;28;20025;-22
2021/04/03 03:54:28;;;;;;;22.05;14.30;;;;;;;13.12;63.92;99564.88;5049200;28;20129;-23
2021/04/03 03:56:53;;;;;;;18.02;14.30;;;;;;;13.36;62.89;99568.16;5066992;28;20547;-23
2021/04/03 03:59:19;;;;;;;19.27;13.55;;;;;;;13.35;63.34;99571.06;5066839;28;20029;-22
2021/04/03 04:01:44;;;;;;;17.42;13.60;;;;;;;12.65;65.49;99573.31;5067009;28;20895;-22
2021/04/03 04:04:10;;;;;;;22.08;14.50;;;;;;;12.40;66.61;99565.66;5066664;28;20028;-22
2021/04/03 04:06:35;;;;;;;20.40;14.50;;;;;;;12.92;64.72;99564.59;5066960;28;20114;-22
2021/04/03 04:09:03;;;;;;;20.27;15.48;;;;;;;13.01;64.99;99563.09;5067124;28;20037;-21
2021/04/03 04:11:29;;;;;;;35.90;21.88;;;;;;;12.39;67.07;99575.56;5067069;28;20033;-21
2021/04/03 04:13:54;;;;;;;120.15;35.15;;;;;;;12.27;66.53;99566.81;5066905;28;20165;-22
2021/04/03 04:16:20;;;;;;;60.97;23.77;;;;;;;12.32;67.37;99580.28;5066551;28;20033;-23
2021/04/03 04:18:45;;;;;;;65.05;36.10;;;;;;;12.13;67.79;99573.50;5066707;28;20028;-22
2021/04/03 04:21:11;;;;;;;177.88;119.07;;;;;;;12.44;66.90;99564.97;5066439;28;20024;-22
2021/04/03 04:23:36;;;;;;;176.93;42.22;;;;;;;12.27;67.59;99585.53;5066992;28;20036;-22
2021/04/03 04:26:02;;;;;;;33.72;17.48;;;;;;;12.19;67.60;99588.59;5070395;28;20090;-22
2021/04/03 04:28:28;;;;;;;57.25;28.48;;;;;;;12.31;67.42;99583.19;5070114;28;20501;-23
2021/04/03 04:30:53;;;;;;;37.40;23.48;;;;;;;12.66;65.82;99583.75;5070639;28;20025;-22
2021/04/03 04:33:19;;;;;;;34.08;26.00;;;;;;;12.90;65.55;99585.44;5070471;28;20021;-22
2021/04/03 04:35:44;;;;;;;39.88;29.33;;;;;;;12.63;65.77;99591.47;5070236;28;20028;-22
2021/04/03 04:38:10;;;;;;;45.03;32.78;;;;;;;12.99;64.96;99589.28;5069993;28;20035;-23
2021/04/03 04:40:35;;;;;;;36.38;24.20;;;;;;;12.57;66.08;99584.41;5070208;28;20103;-23
2021/04/03 04:43:01;;;;;;;26.38;16.67;;;;;;;12.84;65.19;99593.38;5070016;28;20465;-22
2021/04/03 04:45:26;;;;;;;25.67;15.20;;;;;;;13.09;63.88;99594.78;5070226;28;20075;-22
2021/04/03 04:47:52;;;;;;;21.70;14.98;;;;;;;13.21;64.11;99589.34;5070289;28;20028;-21
2021/04/03 04:50:17;;;;;;;17.65;13.55;;;;;;;12.93;64.85;99584.94;5070124;28;20060;-23
2021/04/03 04:52:43;;;;;;;19.80;13.98;;;;;;;12.98;64.82;99591.16;5070111;28;20124;-22
2021/04/03 04:55:09;;;;;;;23.08;13.77;;;;;;;12.94;64.83;99594.59;5070027;28;20111;-23
2021/04/03 04:57:35;;;;;;;22.00;15.05;;;;;;;12.72;65.77;99592.66;5069801;28;20028;-22
2021/04/03 05:00:01;;;;;;;23.52;16.10;;;;;;;12.21;67.50;99603.34;5069893;28;20510;-23
2021/04/03 05:02:26;;;;;;;33.33;23.73;;;;;;;12.37;67.71;99601.72;5051908;28;20036;-23
2021/04/03 05:04:52;;;;;;;28.95;20.45;;;;;;;12.88;65.69;99595.56;5069687;28;20039;-23
2021/04/03 05:07:17;;;;;;;33.13;22.25;;;;;;;13.35;63.97;99592.50;5069844;28;20036;-22
2021/04/03 05:09:43;;;;;;;31.77;20.60;;;;;;;13.44;63.59;99591.00;5069974;28;20060;-23
2021/04/03 05:12:09;;;;;;;30.60;19.83;;;;;;;12.73;66.25;99598.81;5069374;28;20043;-22
2021/04/03 05:14:35;;;;;;;36.45;21.30;;;;;;;13.03;65.86;99601.13;5069619;28;20029;-22
2021/04/03 05:17:00;;;;;;;32.30;21.00;;;;;;;13.39;64.18;99589.06;5069678;28;20451;-22
2021/04/03 05:19:26;;;;;;;31.20;20.63;;;;;;;13.54;63.32;99601.03;5069460;28;20052;-22
2021/04/03 05:21:52;;;;;;;36.67;23.55;;;;;;;13.47;63.77;99595.88;5069385;28;20369;-23
2021/04/03 05:24:17;;;;;;;41.78;26.60;;;;;;;12.97;65.08;99591.41;5069213;28;20037;-23
2021/04/03 05:26:43;;;;;;;36.65;25.30;;;;;;;13.34;64.02;99580.16;5069447;28;20037;-22
2021/04/03 05:29:09;;;;;;;35.50;22.45;;;;;;;13.25;65.44;99583.22;5069649;28;20068;-23
2021/04/03 05:31:34;;;;;;;39.75;24.40;;;;;;;13.16;64.59;99584.72;5069190;28;20048;-22
2021/04/03 05:34:00;;;;;;;38.13;25.98;;;;;;;13.42;64.43;99593.94;5069299;28;20056;-23
2021/04/03 05:36:25;;;;;;;35.42;25.67;;;;;;;13.38;64.55;99592.81;5068796;28;20062;-23
2021/04/03 05:38:51;;;;;;;37.38;24.58;;;;;;;13.27;64.16;99597.19;5069208;28;20041;-23
2021/04/03 05:41:16;;;;;;;45.67;30.55;;;;;;;13.55;63.54;99587.38;5069003;28;20060;-23
2021/04/03 05:43:43;;;;;;;54.95;34.95;;;;;;;13.59;63.90;99582.34;5069146;28;20065;-22
2021/04/03 05:46:08;;;;;;;59.72;39.42;;;;;;;13.55;63.88;99597.31;5034517;28;20039;-20
2021/04/03 05:48:34;;;;;;;57.15;38.42;;;;;;;13.64;63.82;99587.75;5034315;28;20057;-22
2021/04/03 05:51:00;;;;;;;55.67;38.40;;;;;;;13.66;63.62;99583.75;5051093;28;20060;-23
2021/04/03 05:53:26;;;;;;;47.20;31.63;;;;;;;13.49;64.34;99592.94;5050834;28;20029;-23
2021/04/03 05:55:52;;;;;;;75.50;48.58;;;;;;;13.29;66.25;99598.81;5068689;28;20051;-23
2021/04/03 05:58:18;;;;;;;65.15;44.92;;;;;;;13.55;65.07;99591.94;5068638;28;20036;-23
2021/04/03 06:00:44;;;;;;;53.75;35.63;;;;;;;13.37;65.92;99590.38;5068685;28;20195;-23
2021/04/03 06:03:09;;;;;;;43.53;30.85;;;;;;;13.12;66.15;99599.66;5068639;28;20533;-22
2021/04/03 06:05:35;;;;;;;43.83;29.13;;;;;;;13.34;65.88;99580.16;5068680;28;20048;-21
2021/04/03 06:08:00;;;;;;;60.88;42.22;;;;;;;13.76;64.61;99584.94;5034461;28;20040;-22
2021/04/03 06:10:26;;;;;;;67.53;43.85;;;;;;;13.81;63.83;99596.53;5068352;28;20394;-22
2021/04/03 06:12:51;;;;;;;87.43;49.50;;;;;;;13.83;64.27;99598.94;5068332;28;20025;-23
2021/04/03 06:15:32;;;;;;;115.50;62.63;;;;;;;13.88;64.01;99604.38;5050429;28;20469;-23
2021/04/03 06:17:58;;;;;;;70.65;42.63;;;;;;;13.98;63.82;99601.78;5068814;28;20032;-23
2021/04/03 06:20:30;;;;;;;55.05;40.08;;;;;;;14.02;62.94;99596.75;5068494;28;20111;-22
2021/04/03 06:22:56;;;;;;;45.28;35.03;;;;;;;13.96;63.41;99609.28;5068399;28;20133;-22
2021/04/03 06:25:21;;;;;;;42.08;29.25;;;;;;;13.90;63.38;99594.19;5050244;28;20500;-22
2021/04/03 06:27:47;;;;;;;31.27;22.55;;;;;;;14.30;62.69;99611.72;5050547;28;20040;-22
2021/04/03 06:30:36;;;;;;;37.22;26.02;;;;;;;14.45;62.52;99601.16;5050769;28;20036;-23
2021/04/03 06:33:15;;;;;;;29.00;20.48;;;;;;;14.36;63.68;99613.41;5068432;28;20878;-21
2021/04/03 06:35:41;;;;;;;35.58;24.95;;;;;;;14.56;62.73;99612.00;5068092;28;20082;-22
2021/04/03 06:38:22;;;;;;;54.47;41.83;;;;;;;14.39;64.28;99602.16;5050403;28;20048;-21
2021/04/03 06:40:48;;;;;;;181.63;162.15;;;;;;;14.34;63.80;99598.63;5067840;28;20512;-23
2021/04/03 06:43:17;;;;;;;155.82;121.30;;;;;;;14.72;63.27;99619.09;5068005;28;20086;-23
2021/04/03 06:45:44;;;;;;;88.75;47.85;;;;;;;14.75;62.36;99604.34;5067872;28;20039;-24
2021/04/03 06:48:11;;;;;;;66.88;39.20;;;;;;;14.74;62.64;99624.22;5066778;28;20037;-23
2021/04/03 06:50:41;;;;;;;43.67;28.02;;;;;;;14.69;63.18;99616.94;5067677;28;20049;-23
2021/04/03 06:53:16;;;;;;;37.88;20.05;;;;;;;14.90;63.44;99622.47;5067470;28;20024;-23
2021/04/03 06:55:46;;;;;;;57.05;30.48;;;;;;;14.99;63.80;99620.91;5067675;28;20036;-23
2021/04/03 06:58:12;;;;;;;21.45;16.45;;;;;;;15.05;62.48;99606.44;5067261;28;20024;-23
2021/04/03 07:00:37;;;;;;;48.95;25.33;;;;;;;15.19;62.00;99602.22;5067518;28;20561;-23
2021/04/03 07:03:09;;;;;;;36.67;20.65;;;;;;;15.46;61.61;99617.38;5067717;28;20029;-22
2021/04/03 07:05:35;;;;;;;45.60;23.27;;;;;;;15.47;60.85;99619.03;5067538;28;20028;-22
2021/04/03 07:08:02;;;;;;;25.73;16.08;;;;;;;15.71;59.69;99616.69;5049778;28;20063;-23
2021/04/03 07:10:28;;;;;;;20.77;14.00;;;;;;;15.72;59.23;99610.28;5067316;28;20031;-23
2021/04/03 07:12:55;;;;;;;26.75;14.82;;;;;;;15.54;59.97;99621.47;5067416;28;20020;-23
2021/04/03 07:15:21;;;;;;;18.05;12.10;;;;;;;15.59;59.10;99614.22;5067448;28;20097;-22
2021/04/03 07:17:47;;;;;;;37.55;16.20;;;;;;;15.77;59.13;99606.78;5067327;28;20040;-23
2021/04/03 07:20:14;;;;;;;60.42;24.23;;;;;;;16.18;58.18;99604.19;5032590;28;20043;-23
2021/04/03 07:22:42;;;;;;;30.85;16.48;;;;;;;16.30;57.79;99612.81;5049779;28;20029;-23
2021/04/03 07:25:08;;;;;;;;;;;;;;;16.43;57.58;99606.91;5067591;28;20085;-23
2021/04/03 07:27:35;;;;;;;30.42;19.65;;;;;;;15.95;58.30;99598.22;5067261;28;19912;-23
2021/04/03 07:30:00;;;;;;;21.83;13.88;;;;;;;16.09;59.19;99595.03;5032867;28;20492;-23
2021/04/03 07:32:29;;;;;;;14.88;10.30;;;;;;;16.13;56.70;99585.38;5066712;28;20036;-23
2021/04/03 07:34:55;;;;;;;20.45;16.30;;;;;;;16.36;56.94;99590.22;5066978;28;20052;-23
2021/04/03 07:37:34;;;;;;;14.63;11.88;;;;;;;16.48;55.32;99596.13;5067038;28;20028;-23
2021/04/03 07:39:59;;;;;;;11.52;8.20;;;;;;;16.27;56.68;99591.84;5066959;28;20036;-22
2021/04/03 07:42:35;;;;;;;12.55;8.95;;;;;;;16.30;55.17;99585.91;5049201;28;20032;-23
2021/04/03 07:45:03;;;;;;;13.38;9.07;;;;;;;16.72;56.22;99609.06;5067480;28;20021;-23
2021/04/03 07:47:28;;;;;;;15.00;10.35;;;;;;;16.97;55.13;99600.16;5049230;28;20036;-23
2021/04/03 07:49:54;;;;;;;13.90;9.85;;;;;;;17.30;53.33;99615.97;5066684;28;20060;-23
2021/04/03 07:52:58;;;;;;;15.05;10.60;;;;;;;17.20;55.88;99616.81;5041361;28;20024;-20
2021/04/03 07:55:30;;;;;;;12.88;10.05;;;;;;;17.51;54.54;99614.84;5023298;28;20034;-23
2021/04/03 07:58:27;;;;;;;13.25;10.48;;;;;;;18.02;52.46;99617.31;5020022;28;20042;-21
2021/04/03 08:00:52;;;;;;;12.65;10.45;;;;;;;17.96;54.62;99604.09;5047570;28;20036;-22
2021/04/03 08:03:22;;;;;;;16.50;9.88;;;;;;;17.57;54.89;99591.34;5059904;28;20028;-22
2021/04/03 08:05:49;;;;;;;13.60;9.38;;;;;;;17.52;53.90;99600.25;5058402;28;20127;-21
2021/04/03 08:08:17;;;;;;;38.50;11.75;;;;;;;17.50;53.70;99591.66;5060495;28;20029;-21
2021/04/03 08:10:43;;;;;;;20.45;12.88;;;;;;;17.72;53.54;99604.75;5048335;28;20063;-22
2021/04/03 08:13:08;;;;;;;35.42;23.75;;;;;;;17.78;52.88;99584.78;5070566;28;20476;-21
2021/04/03 08:15:34;;;;;;;15.32;9.90;;;;;;;18.08;53.32;99607.28;5070864;28;20785;-22
2021/04/03 08:17:59;;;;;;;23.50;17.85;;;;;;;18.25;50.47;99575.31;5052739;28;20024;-22
2021/04/03 08:20:25;;;;;;;12.65;9.05;;;;;;;18.82;49.58;99594.56;5052543;28;20060;-22
2021/04/03 08:23:06;;;;;;;15.07;11.65;;;;;;;18.70;49.34;99575.22;5070357;28;20029;-22
2021/04/03 08:25:32;;;;;;;12.75;9.43;;;;;;;18.33;50.26;99587.41;5053030;28;20473;-22
2021/04/03 08:27:59;;;;;;;12.95;8.80;;;;;;;18.38;50.67;99584.66;5070406;28;20488;-22
2021/04/03 08:30:29;;;;;;;13.65;8.95;;;;;;;18.71;49.68;99598.41;5070189;28;20036;-23
2021/04/03 08:33:12;;;;;;;13.25;10.60;;;;;;;18.58;49.28;99591.00;5052697;28;20046;-22
2021/04/03 08:35:38;;;;;;;13.65;9.30;;;;;;;18.57;49.81;99592.06;5070441;28;20056;-22
2021/04/03 08:38:17;;;;;;;16.70;14.13;;;;;;;18.45;49.60;99585.16;5070351;28;20043;-22
2021/04/03 08:40:43;;;;;;;22.45;17.27;;;;;;;18.68;50.71;99578.19;5070099;28;20040;-22
2021/04/03 08:43:15;;;;;;;18.40;10.90;;;;;;;19.12;49.37;99586.44;5070260;28;20067;-22
2021/04/03 08:45:42;;;;;;;17.00;9.70;;;;;;;19.86;46.89;99578.78;5052459;28;20395;-22
2021/04/03 08:48:08;;;;;;;16.33;9.17;;;;;;;19.55;47.78;99568.31;5052459;28;20390;-21
2021/04/03 08:50:33;;;;;;;12.65;8.68;;;;;;;19.67;48.87;99584.94;5070205;28;20822;-21
2021/04/03 08:53:03;;;;;;;16.23;10.50;;;;;;;20.05;48.27;99566.03;5051872;28;20020;-21
2021/04/03 08:55:29;;;;;;;15.52;10.48;;;;;;;20.61;46.00;99582.50;5070132;28;20025;-21
2021/04/03 08:57:55;;;;;;;12.05;7.88;;;;;;;20.47;44.85;99572.44;5070472;28;20101;-21
2021/04/03 09:00:21;;;;;;;13.75;8.65;;;;;;;20.36;46.61;99570.16;5035459;28;20511;-21
2021/04/03 09:02:47;;;;;;;12.25;8.50;;;;;;;20.58;45.09;99567.66;5069764;28;20036;-22
2021/04/03 09:05:14;;;;;;;13.45;9.02;;;;;;;20.70;45.48;99553.63;5035350;28;20036;-22
2021/04/03 09:07:41;;;;;;;19.00;13.25;;;;;;;19.60;47.23;99551.25;5069685;28;20052;-21
2021/04/03 09:10:14;;;;;;;13.70;8.55;;;;;;;19.67;47.88;99566.00;5068808;28;20094;-21
2021/04/03 09:12:40;;;;;;;16.45;9.00;;;;;;;20.74;45.14;99565.50;5069495;28;20056;-21
2021/04/03 09:15:07;;;;;;;11.55;6.93;;;;;;;20.87;43.18;99556.56;5051837;28;20489;-21
2021/04/03 09:17:33;;;;;;;17.92;8.35;;;;;;;21.50;42.63;99548.03;5069556;28;20512;-21
2021/04/03 09:20:11;;;;;;;10.85;7.13;;;;;;;21.78;40.79;99532.47;5069545;28;20071;-19
2021/04/03 09:22:38;;;;;;;13.05;7.82;;;;;;;21.97;41.31;99557.56;5069699;28;20055;-21
2021/04/03 09:25:08;;;;;;;9.55;6.57;;;;;;;21.30;43.65;99528.34;5069668;28;20040;-20
2021/04/03 09:27:34;;;;;;;11.68;7.07;;;;;;;21.42;42.93;99553.06;5069425;28;20031;-21
2021/04/03 09:30:05;;;;;;;15.70;11.35;;;;;;;21.22;42.70;99548.84;5051650;28;20021;-21
2021/04/03 09:32:48;;;;;;;12.68;7.53;;;;;;;21.53;42.69;99542.78;5051753;28;20032;-21
2021/04/03 09:35:21;;;;;;;14.38;11.52;;;;;;;21.56;42.90;99536.78;5051350;28;20060;-19
2021/04/03 09:38:03;;;;;;;11.23;6.93;;;;;;;21.96;41.37;99545.09;5051654;28;20122;-21
2021/04/03 09:40:42;;;;;;;13.57;9.20;;;;;;;22.11;41.71;99543.13;5069001;28;20111;-21
2021/04/03 09:43:09;;;;;;;10.13;5.95;;;;;;;22.03;41.97;99542.75;5069063;28;20036;-21
2021/04/03 09:45:37;;;;;;;11.40;7.00;;;;;;;22.26;40.86;99527.28;5068925;28;20093;-20
2021/04/03 09:48:02;;;;;;;9.40;6.53;;;;;;;22.11;40.66;99529.53;5069057;28;20029;-20
2021/04/03 09:50:28;;;;;;;9.57;7.13;;;;;;;22.30;40.17;99515.81;5068612;28;20056;-22
2021/04/03 09:52:55;;;;;;;14.88;7.82;;;;;;;22.59;40.62;99512.59;5068910;28;20106;-19
2021/04/03 09:55:20;;;;;;;9.55;7.15;;;;;;;22.52;40.95;99501.41;5051119;28;20515;-20
2021/04/03 09:57:46;;;;;;;12.13;9.43;;;;;;;22.95;38.53;99520.59;5069000;28;20029;-21
2021/04/03 10:00:13;;;;;;;11.00;7.93;;;;;;;22.75;38.54;99527.38;5068728;28;20031;-21
2021/04/03 10:02:38;;;;;;;11.93;8.60;;;;;;;22.56;38.90;99521.41;5068662;28;20031;-21
2021/04/03 10:05:05;;;;;;;9.48;6.45;;;;;;;22.10;39.79;99498.88;5068525;28;20029;-21
2021/04/03 10:07:30;;;;;;;11.23;6.88;;;;;;;22.16;41.22;99496.84;5068403;28;20032;-20
2021/04/03 10:09:56;;;;;;;9.88;7.25;;;;;;;22.73;38.83;99501.63;5068567;28;20111;-20
2021/04/03 10:12:21;;;;;;;12.45;9.73;;;;;;;23.63;37.44;99495.78;5068277;28;20052;-20
2021/04/03 10:14:47;;;;;;;10.35;7.60;;;;;;;23.66;36.12;99474.19;5068752;28;20031;-21
2021/04/03 10:17:12;;;;;;;18.25;15.50;;;;;;;23.13;36.49;99477.97;5068700;28;20492;-21
2021/04/03 10:19:38;;;;;;;10.10;6.38;;;;;;;23.19;34.74;99476.69;5068713;28;20044;-21
2021/04/03 10:22:04;;;;;;;7.90;6.53;;;;;;;23.21;36.36;99474.47;5067498;28;20035;-22
2021/04/03 10:24:29;;;;;;;10.75;7.03;;;;;;;23.62;35.02;99475.94;5067877;28;20041;-21
2021/04/03 10:26:55;;;;;;;10.70;6.22;;;;;;;23.47;36.28;99466.31;5068088;28;20480;-20
2021/04/03 10:29:21;;;;;;;9.57;6.05;;;;;;;24.06;34.26;99468.53;5068210;28;20619;-20
2021/04/03 10:31:46;;;;;;;8.57;5.70;;;;;;;24.28;30.89;99469.47;5068061;28;20501;-20
2021/04/03 10:34:12;;;;;;;6.80;4.88;;;;;;;24.56;31.56;99461.72;5068031;28;20484;-20
2021/04/03 10:36:37;;;;;;;10.43;6.47;;;;;;;24.87;32.20;99471.50;5050474;28;20115;-21
2021/04/03 10:39:04;;;;;;;11.75;7.43;;;;;;;24.74;33.29;99456.94;5068140;28;20081;-21
2021/04/03 10:41:29;;;;;;;8.65;5.80;;;;;;;25.07;31.42;99464.50;5067993;28;20028;-21
2021/04/03 10:43:55;;;;;;;26.45;18.55;;;;;;;25.56;31.30;99458.53;5067840;28;20035;-21
2021/04/03 10:46:20;;;;;;;58.63;46.30;;;;;;;25.76;30.35;99456.91;5067792;28;20134;-20
2021/04/03 10:48:46;;;;;;;10.65;6.85;;;;;;;25.74;29.10;99445.53;5067754;28;20063;-21
2021/04/03 10:51:11;;;;;;;8.68;5.47;;;;;;;26.11;30.62;99448.41;5067764;28;20020;-20
2021/04/03 10:53:37;;;;;;;7.97;5.80;;;;;;;25.67;30.29;99444.16;5067586;28;20059;-20
2021/04/03 10:56:02;;;;;;;10.27;5.72;;;;;;;26.15;30.05;99435.66;5067823;28;20031;-21
2021/04/03 10:58:28;;;;;;;7.10;5.47;;;;;;;25.65;29.44;99435.50;5067422;28;20480;-20
2021/04/03 11:00:53;;;;;;;6.95;4.70;;;;;;;25.20;30.58;99430.69;5067634;28;20028;-21
2021/04/03 11:03:19;;;;;;;9.75;5.40;;;;;;;25.56;30.29;99412.94;5067463;28;20063;-20
2021/04/03 11:05:45;;;;;;;7.63;5.20;;;;;;;25.76;29.14;99403.09;5067571;28;20055;-21
2021/04/03 11:08:10;;;;;;;8.45;5.10;;;;;;;25.36;29.81;99408.31;5067095;28;20043;-20
2021/04/03 11:10:36;;;;;;;8.13;5.93;;;;;;;25.64;29.94;99395.69;5067459;28;20032;-20
2021/04/03 11:13:02;;;;;;;9.00;5.45;;;;;;;26.65;29.08;99407.28;5049873;28;20028;-20
2021/04/03 11:15:28;;;;;;;9.23;5.50;;;;;;;26.79;28.11;99399.50;5067714;28;20455;-21
2021/04/03 11:17:53;;;;;;;9.98;4.85;;;;;;;26.91;27.07;99403.34;5067415;28;20460;-21
2021/04/03 11:20:19;;;;;;;6.38;4.50;;;;;;;26.75;28.63;99387.66;5067029;28;20021;-20
2021/04/03 11:22:44;;;;;;;9.25;5.22;;;;;;;27.03;27.70;99384.16;5067312;28;20033;-21
2021/04/03 11:25:10;;;;;;;9.60;5.70;;;;;;;27.25;28.00;99396.56;5049274;28;20031;-20